This is the latest recevied weather packets stored in our database for station/object DB0SVX. If no packets are shown the sender has not sent any weather packets the latest 1 day(s).
| Time | Temp. | Humidity | Pressure | Rain* | Wind** | Luminosity | Snow |
|---|---|---|---|---|---|---|---|
| 1777987521 | 23.33° C | 37% | 1006.2 hPa | 0 mm | 1.34 m/s, 135° | - | - |
| 1777986621 | 21.11° C | 41% | 1006.4 hPa | 0 mm | 0 m/s | - | - |
| 1777985721 | 19.44° C | 43% | 1006.5 hPa | 0 mm | 0 m/s | - | - |
| 1777984821 | 19.44° C | 42% | 1006.7 hPa | 0 mm | 0.89 m/s, 0° | - | - |
| 1777983921 | 19.44° C | 42% | 1006.7 hPa | 0 mm | 0 m/s | - | - |
| 1777983021 | 16.67° C | 45% | 1007 hPa | 0 mm | 0 m/s | - | - |
| 1777982121 | 16.67° C | 46% | 1007.2 hPa | 0 mm | 0.89 m/s, 45° | - | - |
| 1777981221 | 18.33° C | 45% | 1007.2 hPa | 0 mm | 0 m/s | - | - |
| 1777980321 | 20.56° C | 42% | 1007 hPa | 0 mm | 0.89 m/s, 0° | - | - |
| 1777979422 | 21.67° C | 39% | 1006.7 hPa | 0 mm | 0 m/s | - | - |
| 1777978521 | 22.78° C | 38% | 1006.7 hPa | 0 mm | 0 m/s | - | - |
| 1777977621 | 22.78° C | 37% | 1006.7 hPa | 0 mm | 0 m/s | - | - |
| 1777976721 | 23.89° C | 36% | 1006.7 hPa | 0 mm | 0 m/s | - | - |
| 1777975821 | 22.22° C | 38% | 1006.7 hPa | 0 mm | 0.89 m/s, 315° | - | - |
| 1777974921 | 21.67° C | 39% | 1006.9 hPa | 0 mm | 0 m/s | - | - |
| 1777974021 | 22.22° C | 37% | 1006.9 hPa | 0 mm | 0 m/s | - | - |
| 1777973121 | 23.89° C | 35% | 1007 hPa | 0 mm | 0 m/s | - | - |
| 1777972221 | 26.11° C | 34% | 1007.2 hPa | 0 mm | 0 m/s | - | - |
| 1777971321 | 23.89° C | 36% | 1007.2 hPa | 0 mm | 1.79 m/s, 270° | - | - |
| 1777970421 | 22.78° C | 37% | 1007.2 hPa | 0 mm | 2.68 m/s, 225° | - | - |
| 1777969521 | 21.67° C | 38% | 1007.4 hPa | 0 mm | 0 m/s | - | - |
| 1777968621 | 21.67° C | 36% | 1007.5 hPa | 0 mm | 0 m/s | - | - |
| 1777967721 | 19.44° C | 37% | 1007.5 hPa | 0 mm | 0.89 m/s, 0° | - | - |
| 1777966821 | 18.33° C | 38% | 1007.7 hPa | 0 mm | 0 m/s | - | - |
| 1777965921 | 17.78° C | 37% | 1007.9 hPa | 0 mm | 0 m/s | - | - |
* Rain latest hour (hover to see other rain measurements)
** Current wind speed in m/s (hover to see current wind gust speed)